Time;durP1;ratioP1;P1;durP2;ratioP2;P2;SDS_P1;SDS_P2;PMS_P1;PMS_P2;Temp;Humidity;BMP_temperature;BMP_pressure;BME280_temperature;BME280_humidity;BME280_pressure;Samples;Min_cycle;Max_cycle;Signal;HPM_P1;HPM_P2
2022/04/14 00:00:36;;;;;;;34.13;16.45;;;;;;;;;;4959287;28;20070;-84
2022/04/14 00:03:03;;;;;;;35.45;17.67;;;;;;;;;;4977551;28;20055;-84
2022/04/14 00:05:30;;;;;;;42.25;19.33;;;;;;;;;;4958344;28;20048;-84
2022/04/14 00:07:56;;;;;;;34.88;18.50;;;;;;;;;;4959037;28;20075;-84
2022/04/14 00:10:22;;;;;;;37.58;19.13;;;;;;;;;;4951989;28;20056;-83
2022/04/14 00:12:49;;;;;;;38.13;19.58;;;;;;;;;;4966721;28;20110;-83
2022/04/14 00:15:15;;;;;;;36.08;18.65;;;;;;;;;;4944151;28;20111;-84
2022/04/14 00:17:42;;;;;;;42.92;19.75;;;;;;;;;;4957979;28;20534;-84
2022/04/14 00:20:10;;;;;;;41.70;19.95;;;;;;;;;;4960527;28;20544;-83
2022/04/14 00:22:37;;;;;;;42.85;20.45;;;;;;;;;;4959795;28;20055;-84
2022/04/14 00:25:06;;;;;;;43.42;21.08;;;;;;;;;;4974648;28;20110;-84
2022/04/14 00:27:33;;;;;;;45.28;21.17;;;;;;;;;;4976060;28;20896;-84
2022/04/14 00:29:59;;;;;;;46.20;21.40;;;;;;;;;;4958582;28;20055;-84
2022/04/14 00:32:25;;;;;;;41.97;20.60;;;;;;;;;;4958498;28;20130;-84
2022/04/14 00:34:52;;;;;;;48.78;23.38;;;;;;;;;;4976181;28;20062;-84
2022/04/14 00:37:18;;;;;;;44.42;22.33;;;;;;;;;;4957840;28;20110;-83
2022/04/14 00:39:44;;;;;;;45.13;22.02;;;;;;;;;;4959856;28;20079;-84
2022/04/14 00:42:11;;;;;;;52.50;23.42;;;;;;;;;;4959058;28;20511;-84
2022/04/14 00:44:37;;;;;;;55.50;24.23;;;;;;;;;;4975691;28;20059;-84
2022/04/14 00:47:04;;;;;;;51.20;24.52;;;;;;;;;;4939872;28;20059;-84
2022/04/14 00:49:31;;;;;;;45.63;22.77;;;;;;;;;;4955358;28;20075;-84
2022/04/14 00:52:01;;;;;;;47.25;21.92;;;;;;;;;;4947374;28;20129;-84
2022/04/14 00:54:30;;;;;;;44.03;21.77;;;;;;;;;;4958258;28;20130;-84
2022/04/14 00:56:58;;;;;;;43.80;20.67;;;;;;;;;;4977611;28;20130;-84
2022/04/14 00:59:25;;;;;;;48.80;22.25;;;;;;;;;;4959567;28;20089;-84
2022/04/14 01:01:51;;;;;;;49.25;23.00;;;;;;;;;;4977501;28;20071;-84
2022/04/14 01:04:18;;;;;;;44.17;22.35;;;;;;;;;;4958263;28;20054;-84
2022/04/14 01:06:45;;;;;;;48.90;22.98;;;;;;;;;;4945603;28;20515;-84
2022/04/14 01:09:19;;;;;;;44.78;21.88;;;;;;;;;;4943023;28;20591;-83
2022/04/14 01:11:46;;;;;;;48.85;23.33;;;;;;;;;;4960423;28;20410;-84
2022/04/14 01:14:25;;;;;;;43.28;21.95;;;;;;;;;;4966651;28;20079;-83
2022/04/14 01:16:52;;;;;;;46.30;21.38;;;;;;;;;;4977986;28;20046;-84
2022/04/14 01:19:18;;;;;;;52.05;24.33;;;;;;;;;;4961920;28;20507;-83
2022/04/14 01:21:49;;;;;;;43.40;21.33;;;;;;;;;;4979858;28;20063;-83
2022/04/14 01:24:15;;;;;;;46.22;21.77;;;;;;;;;;4951739;28;20888;-84
2022/04/14 01:26:42;;;;;;;51.72;24.15;;;;;;;;;;4959904;28;20051;-84
2022/04/14 01:29:18;;;;;;;51.65;24.50;;;;;;;;;;4978288;28;20043;-84
2022/04/14 01:31:45;;;;;;;56.17;24.92;;;;;;;;;;4959643;28;20059;-84
2022/04/14 01:34:11;;;;;;;51.88;24.83;;;;;;;;;;4959772;28;20157;-84
2022/04/14 01:36:38;;;;;;;46.17;23.70;;;;;;;;;;4972887;28;20089;-84
2022/04/14 01:39:04;;;;;;;50.45;23.70;;;;;;;;;;4957767;28;20597;-84
2022/04/14 01:41:30;;;;;;;51.40;25.98;;;;;;;;;;4955362;28;20209;-83
2022/04/14 01:43:56;;;;;;;58.33;27.02;;;;;;;;;;4958582;28;20091;-84
2022/04/14 01:46:23;;;;;;;54.65;25.88;;;;;;;;;;4956513;28;20059;-83
2022/04/14 01:48:50;;;;;;;63.88;27.55;;;;;;;;;;4971808;28;20058;-84
2022/04/14 01:51:16;;;;;;;56.17;27.30;;;;;;;;;;4938023;28;20139;-84
2022/04/14 01:53:42;;;;;;;56.10;26.80;;;;;;;;;;4939972;28;20158;-84
2022/04/14 01:56:08;;;;;;;58.47;26.73;;;;;;;;;;4973917;28;20087;-84
2022/04/14 01:58:35;;;;;;;57.60;27.02;;;;;;;;;;4956368;28;20487;-84
2022/04/14 02:01:01;;;;;;;63.60;28.05;;;;;;;;;;4956844;28;20435;-84
2022/04/14 02:03:28;;;;;;;54.15;26.40;;;;;;;;;;4956119;28;20049;-84
2022/04/14 02:05:54;;;;;;;51.30;26.27;;;;;;;;;;4954534;28;20075;-84
2022/04/14 02:08:21;;;;;;;48.67;23.00;;;;;;;;;;4953950;28;20526;-84
2022/04/14 02:10:47;;;;;;;46.75;22.88;;;;;;;;;;4956840;28;20514;-84
2022/04/14 02:13:14;;;;;;;51.13;22.58;;;;;;;;;;4972254;28;20150;-84
2022/04/14 02:15:40;;;;;;;49.95;23.27;;;;;;;;;;4953878;28;20078;-84
2022/04/14 02:18:06;;;;;;;44.55;22.85;;;;;;;;;;4955779;28;20597;-83
2022/04/14 02:20:33;;;;;;;39.88;19.73;;;;;;;;;;4955432;28;20060;-84
2022/04/14 02:22:59;;;;;;;40.40;19.77;;;;;;;;;;4954948;28;20086;-83
2022/04/14 02:25:26;;;;;;;37.03;19.00;;;;;;;;;;4956515;28;20059;-84
2022/04/14 02:27:52;;;;;;;36.10;17.52;;;;;;;;;;4955503;28;20067;-84
2022/04/14 02:30:19;;;;;;;37.53;18.52;;;;;;;;;;4954549;28;20106;-84
2022/04/14 02:32:45;;;;;;;36.42;17.92;;;;;;;;;;4958294;28;20089;-84
2022/04/14 02:35:11;;;;;;;33.00;17.63;;;;;;;;;;4956459;28;20138;-84
2022/04/14 02:37:38;;;;;;;34.38;17.77;;;;;;;;;;4941535;28;20115;-84
2022/04/14 02:40:05;;;;;;;32.75;16.17;;;;;;;;;;4954190;28;20498;-84
2022/04/14 02:42:31;;;;;;;30.27;15.10;;;;;;;;;;4973781;28;20071;-83
2022/04/14 02:44:58;;;;;;;30.00;13.45;;;;;;;;;;4956155;28;20086;-84
2022/04/14 02:47:24;;;;;;;23.60;12.07;;;;;;;;;;4951691;28;20083;-84
2022/04/14 02:49:50;;;;;;;23.05;11.60;;;;;;;;;;4969629;28;20050;-83
2022/04/14 02:52:17;;;;;;;22.83;11.82;;;;;;;;;;4955714;28;20573;-84
2022/04/14 02:54:43;;;;;;;29.30;13.63;;;;;;;;;;4955281;28;20863;-84
2022/04/14 02:57:09;;;;;;;31.63;14.82;;;;;;;;;;4958820;28;20090;-83
2022/04/14 02:59:38;;;;;;;29.60;14.20;;;;;;;;;;4955671;28;20665;-83
2022/04/14 03:02:05;;;;;;;26.00;12.98;;;;;;;;;;4972328;28;20040;-83
2022/04/14 03:04:32;;;;;;;25.55;12.75;;;;;;;;;;4971767;28;20051;-83
2022/04/14 03:06:58;;;;;;;23.38;12.32;;;;;;;;;;4955839;28;20169;-84
2022/04/14 03:09:25;;;;;;;26.50;12.80;;;;;;;;;;4955203;28;20067;-83
2022/04/14 03:11:52;;;;;;;25.45;13.45;;;;;;;;;;4951462;28;20090;-83
2022/04/14 03:14:18;;;;;;;30.15;14.20;;;;;;;;;;4949978;28;20067;-84
2022/04/14 03:16:45;;;;;;;33.22;14.45;;;;;;;;;;4955415;28;20075;-84
2022/04/14 03:19:11;;;;;;;71.97;15.98;;;;;;;;;;4955144;28;20142;-83
2022/04/14 03:21:38;;;;;;;45.60;16.02;;;;;;;;;;4972556;28;20118;-83
2022/04/14 03:24:04;;;;;;;44.60;15.82;;;;;;;;;;4948289;28;20048;-84
2022/04/14 03:26:30;;;;;;;42.40;16.63;;;;;;;;;;4956498;28;20051;-83
2022/04/14 03:28:57;;;;;;;31.95;16.27;;;;;;;;;;4990897;28;20043;-83
2022/04/14 03:31:23;;;;;;;27.23;14.38;;;;;;;;;;4974909;28;21027;-84
2022/04/14 03:33:50;;;;;;;32.40;15.57;;;;;;;;;;4976043;28;20048;-84
2022/04/14 03:36:16;;;;;;;27.08;15.13;;;;;;;;;;4978805;28;20103;-84
2022/04/14 03:38:45;;;;;;;30.30;16.08;;;;;;;;;;4995432;28;20047;-84
2022/04/14 03:41:11;;;;;;;33.03;17.60;;;;;;;;;;4978210;28;20042;-84
2022/04/14 03:43:37;;;;;;;28.27;16.55;;;;;;;;;;4995316;28;20039;-84
2022/04/14 03:46:04;;;;;;;33.83;17.17;;;;;;;;;;4978773;28;20107;-83
2022/04/14 03:48:30;;;;;;;32.75;18.00;;;;;;;;;;4978378;28;20231;-84
2022/04/14 03:50:57;;;;;;;31.33;17.95;;;;;;;;;;4977966;28;20023;-84
2022/04/14 03:53:23;;;;;;;33.53;18.23;;;;;;;;;;4995763;28;20059;-84
2022/04/14 03:55:51;;;;;;;41.30;18.80;;;;;;;;;;4993968;28;20076;-84
2022/04/14 03:58:17;;;;;;;37.33;18.92;;;;;;;;;;4975625;28;20079;-83
2022/04/14 04:00:43;;;;;;;37.00;18.30;;;;;;;;;;4992078;28;20068;-84
2022/04/14 04:03:13;;;;;;;37.83;19.67;;;;;;;;;;4973927;28;20078;-84
2022/04/14 04:05:39;;;;;;;33.58;17.05;;;;;;;;;;4990360;28;20117;-84
2022/04/14 04:08:06;;;;;;;35.78;18.35;;;;;;;;;;4969858;28;20056;-84
2022/04/14 04:10:32;;;;;;;33.05;17.75;;;;;;;;;;4973445;28;20055;-84
2022/04/14 04:12:59;;;;;;;32.33;16.30;;;;;;;;;;4973039;28;20047;-83
2022/04/14 04:15:26;;;;;;;30.65;17.02;;;;;;;;;;4989422;28;20058;-85
2022/04/14 04:17:52;;;;;;;30.95;16.45;;;;;;;;;;4972396;28;20051;-84
2022/04/14 04:20:19;;;;;;;29.35;15.80;;;;;;;;;;4971500;28;20090;-84
2022/04/14 04:22:45;;;;;;;29.58;15.30;;;;;;;;;;4966162;28;20502;-84
2022/04/14 04:25:11;;;;;;;31.05;16.88;;;;;;;;;;4961530;28;20070;-84
2022/04/14 04:27:38;;;;;;;31.60;16.23;;;;;;;;;;4978308;28;20138;-84
2022/04/14 04:30:05;;;;;;;32.20;16.85;;;;;;;;;;4960720;28;20099;-84
2022/04/14 04:32:33;;;;;;;35.13;17.63;;;;;;;;;;4960623;28;20075;-84
2022/04/14 04:35:00;;;;;;;36.05;18.83;;;;;;;;;;4959215;28;20953;-84
2022/04/14 04:37:27;;;;;;;35.85;17.77;;;;;;;;;;4980053;28;20055;-83
2022/04/14 04:39:53;;;;;;;35.40;17.83;;;;;;;;;;4959970;28;20090;-83
2022/04/14 04:42:19;;;;;;;37.75;17.83;;;;;;;;;;4975821;28;20141;-83
2022/04/14 04:44:46;;;;;;;35.25;16.48;;;;;;;;;;4958626;28;20146;-83
2022/04/14 04:47:12;;;;;;;26.92;13.02;;;;;;;;;;4961589;28;20147;-83
2022/04/14 04:49:38;;;;;;;37.53;13.68;;;;;;;;;;4976770;28;20083;-84
2022/04/14 04:52:05;;;;;;;42.95;13.80;;;;;;;;;;4958485;28;20098;-83
2022/04/14 04:54:31;;;;;;;60.42;13.80;;;;;;;;;;4957512;28;20039;-83
2022/04/14 04:57:01;;;;;;;25.35;12.73;;;;;;;;;;4959066;28;20063;-84
2022/04/14 04:59:38;;;;;;;20.40;11.23;;;;;;;;;;4955731;28;20044;-84
2022/04/14 05:02:04;;;;;;;19.33;11.55;;;;;;;;;;4951107;28;20063;-84
2022/04/14 05:04:31;;;;;;;19.83;11.82;;;;;;;;;;4962483;28;20063;-84
2022/04/14 05:07:02;;;;;;;20.65;11.98;;;;;;;;;;4962956;28;20114;-84
2022/04/14 05:09:28;;;;;;;19.10;10.93;;;;;;;;;;4975381;28;20115;-83
2022/04/14 05:11:55;;;;;;;21.35;12.10;;;;;;;;;;4957437;28;20546;-83
2022/04/14 05:14:21;;;;;;;25.38;11.75;;;;;;;;;;4972733;28;20542;-83
2022/04/14 05:16:47;;;;;;;21.02;11.60;;;;;;;;;;4956325;28;20086;-84
2022/04/14 05:19:14;;;;;;;21.45;12.80;;;;;;;;;;4954697;28;20142;-84
2022/04/14 05:21:40;;;;;;;18.60;11.02;;;;;;;;;;4956509;28;20055;-83
2022/04/14 05:24:06;;;;;;;19.23;11.82;;;;;;;;;;4954295;28;20147;-83
2022/04/14 05:26:33;;;;;;;23.50;13.32;;;;;;;;;;4962034;28;20515;-83
2022/04/14 05:29:02;;;;;;;19.98;11.13;;;;;;;;;;4947965;28;20071;-83
2022/04/14 05:31:28;;;;;;;24.98;13.00;;;;;;;;;;4955400;28;20146;-83
2022/04/14 05:33:55;;;;;;;21.83;13.00;;;;;;;;;;4973979;28;20103;-83
2022/04/14 05:36:21;;;;;;;22.42;13.00;;;;;;;;;;4973361;28;20209;-83
2022/04/14 05:38:48;;;;;;;21.60;13.10;;;;;;;;;;4955917;28;20201;-83
2022/04/14 05:41:14;;;;;;;22.67;12.18;;;;;;;;;;4955406;28;20047;-83
2022/04/14 05:43:40;;;;;;;21.25;13.00;;;;;;;;;;4950718;28;20183;-83
2022/04/14 05:46:08;;;;;;;24.02;12.70;;;;;;;;;;4954146;28;20068;-83
2022/04/14 05:48:34;;;;;;;25.45;14.00;;;;;;;;;;4945216;28;20048;-83
2022/04/14 05:51:00;;;;;;;27.00;14.52;;;;;;;;;;4949328;28;20114;-83
2022/04/14 05:53:28;;;;;;;28.83;15.70;;;;;;;;;;4956963;28;20114;-83
2022/04/14 05:55:54;;;;;;;31.95;17.58;;;;;;;;;;4954559;28;21015;-83
2022/04/14 05:58:20;;;;;;;29.77;17.02;;;;;;;;;;4952377;28;20149;-83
2022/04/14 06:00:47;;;;;;;30.38;17.27;;;;;;;;;;4955646;28;20056;-83
2022/04/14 06:03:14;;;;;;;31.13;16.00;;;;;;;;;;4955340;28;20079;-83
2022/04/14 06:05:40;;;;;;;29.38;16.02;;;;;;;;;;4975862;28;20070;-83
2022/04/14 06:08:06;;;;;;;30.00;16.80;;;;;;;;;;4954929;28;20083;-83
2022/04/14 06:10:35;;;;;;;30.52;16.75;;;;;;;;;;4970641;28;20514;-83
2022/04/14 06:13:01;;;;;;;35.30;17.83;;;;;;;;;;4954378;28;20110;-83
2022/04/14 06:15:29;;;;;;;43.95;22.80;;;;;;;;;;4963030;28;20114;-82
2022/04/14 06:17:55;;;;;;;41.00;21.70;;;;;;;;;;4952575;28;20087;-83
2022/04/14 06:20:22;;;;;;;48.97;24.15;;;;;;;;;;4952308;28;20093;-83
2022/04/14 06:22:48;;;;;;;41.95;22.35;;;;;;;;;;4971742;28;20059;-83
2022/04/14 06:25:17;;;;;;;44.33;22.88;;;;;;;;;;4939679;28;20078;-83
2022/04/14 06:27:44;;;;;;;39.78;21.40;;;;;;;;;;4953227;28;20133;-84
2022/04/14 06:30:11;;;;;;;41.40;22.30;;;;;;;;;;4950392;28;20063;-84
2022/04/14 06:32:37;;;;;;;40.40;21.08;;;;;;;;;;4966367;28;20145;-83
2022/04/14 06:35:06;;;;;;;39.90;21.65;;;;;;;;;;4970297;28;20506;-83
2022/04/14 06:37:33;;;;;;;42.55;21.88;;;;;;;;;;4964597;28;20071;-83
2022/04/14 06:39:59;;;;;;;37.85;21.05;;;;;;;;;;4957894;28;20427;-83
2022/04/14 06:42:46;;;;;;;40.22;20.83;;;;;;;;;;4982004;28;20057;-84
2022/04/14 06:45:12;;;;;;;35.65;20.80;;;;;;;;;;4965775;28;20074;-83
2022/04/14 06:47:39;;;;;;;36.63;19.20;;;;;;;;;;4983152;28;20051;-84
2022/04/14 06:50:06;;;;;;;34.35;18.05;;;;;;;;;;4958028;28;20103;-83
2022/04/14 06:52:33;;;;;;;34.70;17.70;;;;;;;;;;4965935;28;20036;-84
2022/04/14 06:54:59;;;;;;;30.85;17.50;;;;;;;;;;4955618;28;20570;-83
2022/04/14 06:57:26;;;;;;;32.67;17.50;;;;;;;;;;4959000;28;20095;-83
2022/04/14 06:59:52;;;;;;;32.40;17.55;;;;;;;;;;4978467;28;20093;-83
2022/04/14 07:02:19;;;;;;;29.58;15.93;;;;;;;;;;4960582;28;20106;-83
2022/04/14 07:04:45;;;;;;;25.60;14.48;;;;;;;;;;4960937;28;20056;-84
2022/04/14 07:07:11;;;;;;;26.63;14.90;;;;;;;;;;4960710;28;20055;-83
2022/04/14 07:09:38;;;;;;;24.27;13.90;;;;;;;;;;4965488;28;20051;-84
2022/04/14 07:12:04;;;;;;;25.50;13.98;;;;;;;;;;4964723;28;20090;-84
2022/04/14 07:14:38;;;;;;;23.00;13.13;;;;;;;;;;4971924;28;20498;-84
2022/04/14 07:17:05;;;;;;;45.33;16.42;;;;;;;;;;4974303;28;20098;-84
2022/04/14 07:19:32;;;;;;;42.20;18.17;;;;;;;;;;4963442;28;20086;-85
2022/04/14 07:21:59;;;;;;;29.92;13.30;;;;;;;;;;4959184;28;20059;-84
2022/04/14 07:24:27;;;;;;;30.58;14.57;;;;;;;;;;4963576;28;20067;-84
2022/04/14 07:26:54;;;;;;;33.22;14.73;;;;;;;;;;4962153;28;20949;-83
2022/04/14 07:29:20;;;;;;;24.95;12.63;;;;;;;;;;4961143;28;20963;-84
2022/04/14 07:31:47;;;;;;;25.00;12.57;;;;;;;;;;4963419;28;20036;-84
2022/04/14 07:34:14;;;;;;;20.58;12.07;;;;;;;;;;4965219;28;20479;-84
2022/04/14 07:36:40;;;;;;;21.75;12.13;;;;;;;;;;4981915;28;20538;-84
2022/04/14 07:39:09;;;;;;;25.60;12.48;;;;;;;;;;4965159;28;20059;-83
2022/04/14 07:41:35;;;;;;;24.35;12.73;;;;;;;;;;4979069;28;20063;-83
2022/04/14 07:44:02;;;;;;;24.40;12.15;;;;;;;;;;4961785;28;20091;-84
2022/04/14 07:46:28;;;;;;;23.17;11.93;;;;;;;;;;4961548;28;20046;-84
2022/04/14 07:48:54;;;;;;;17.52;10.18;;;;;;;;;;4962891;28;20473;-84
2022/04/14 07:51:21;;;;;;;20.65;11.73;;;;;;;;;;4961303;28;20063;-84
2022/04/14 07:53:47;;;;;;;21.40;11.20;;;;;;;;;;4961499;28;20098;-84
2022/04/14 07:56:15;;;;;;;20.35;10.55;;;;;;;;;;4963046;28;20124;-84
2022/04/14 07:58:43;;;;;;;22.50;9.85;;;;;;;;;;4961838;28;20059;-84
2022/04/14 08:01:10;;;;;;;16.85;9.88;;;;;;;;;;4963162;28;20845;-84
2022/04/14 08:03:39;;;;;;;17.05;9.95;;;;;;;;;;4958921;28;20061;-84
2022/04/14 08:06:05;;;;;;;18.35;10.10;;;;;;;;;;4942940;28;20067;-84
2022/04/14 08:08:32;;;;;;;19.60;10.13;;;;;;;;;;4942937;28;20123;-84
2022/04/14 08:11:03;;;;;;;17.98;10.55;;;;;;;;;;4963728;28;20134;-84
2022/04/14 08:13:30;;;;;;;17.13;10.18;;;;;;;;;;4960704;28;20058;-83
2022/04/14 08:16:01;;;;;;;19.40;10.75;;;;;;;;;;4964508;28;20122;-84
2022/04/14 08:18:28;;;;;;;21.13;10.45;;;;;;;;;;4964742;28;20055;-83
2022/04/14 08:20:57;;;;;;;19.67;10.77;;;;;;;;;;4961468;28;20091;-84
2022/04/14 08:23:23;;;;;;;16.10;9.85;;;;;;;;;;4964631;28;20079;-84
2022/04/14 08:25:50;;;;;;;17.80;10.52;;;;;;;;;;4980923;28;20134;-84
2022/04/14 08:28:40;;;;;;;17.65;10.88;;;;;;;;;;4978892;28;20039;-84
2022/04/14 08:31:10;;;;;;;18.67;9.63;;;;;;;;;;4965905;28;20086;-84
2022/04/14 08:33:37;;;;;;;16.58;10.32;;;;;;;;;;4966844;28;20043;-84
2022/04/14 08:36:12;;;;;;;17.80;10.55;;;;;;;;;;4966902;28;20066;-84
2022/04/14 08:38:40;;;;;;;16.73;10.25;;;;;;;;;;4963199;28;20042;-85
2022/04/14 08:41:07;;;;;;;21.90;11.63;;;;;;;;;;4978964;28;20051;-84
2022/04/14 08:43:45;;;;;;;20.00;11.07;;;;;;;;;;4963588;28;20059;-85
2022/04/14 08:46:12;;;;;;;21.67;10.75;;;;;;;;;;4979668;28;20047;-85
2022/04/14 08:48:39;;;;;;;17.65;9.85;;;;;;;;;;4964888;28;20043;-85
2022/04/14 08:51:06;;;;;;;15.82;9.65;;;;;;;;;;4982302;28;20134;-85
2022/04/14 08:53:35;;;;;;;17.75;10.65;;;;;;;;;;4965771;28;20059;-85
2022/04/14 08:56:04;;;;;;;19.08;10.75;;;;;;;;;;4963159;28;20540;-83
2022/04/14 08:58:31;;;;;;;18.15;10.23;;;;;;;;;;4963621;28;20035;-83
2022/04/14 09:00:57;;;;;;;19.70;9.75;;;;;;;;;;4963780;28;20043;-83
2022/04/14 09:03:44;;;;;;;17.40;10.00;;;;;;;;;;4967429;28;20146;-83
2022/04/14 09:06:10;;;;;;;14.63;9.85;;;;;;;;;;4980425;28;20070;-83
2022/04/14 09:08:37;;;;;;;16.58;9.88;;;;;;;;;;4963987;28;20125;-83
2022/04/14 09:11:07;;;;;;;18.60;9.80;;;;;;;;;;4952323;28;20056;-83
2022/04/14 09:13:37;;;;;;;16.30;9.00;;;;;;;;;;4962377;28;20243;-84
2022/04/14 09:16:06;;;;;;;16.73;9.10;;;;;;;;;;4946023;28;20728;-83
2022/04/14 09:18:33;;;;;;;13.25;8.40;;;;;;;;;;4953096;28;20106;-84
2022/04/14 09:21:03;;;;;;;13.23;7.90;;;;;;;;;;4983272;28;20073;-84
2022/04/14 09:23:31;;;;;;;15.20;8.10;;;;;;;;;;4963844;28;20106;-84
2022/04/14 09:26:04;;;;;;;14.15;8.60;;;;;;;;;;4983250;28;20043;-84
2022/04/14 09:28:30;;;;;;;14.75;8.32;;;;;;;;;;4960971;28;20074;-83
2022/04/14 09:31:01;;;;;;;16.33;8.60;;;;;;;;;;4963124;28;20076;-84
2022/04/14 09:33:28;;;;;;;13.25;8.05;;;;;;;;;;4963397;28;20059;-84
2022/04/14 09:36:04;;;;;;;13.27;7.55;;;;;;;;;;4963996;28;20051;-84
2022/04/14 09:38:50;;;;;;;12.55;7.10;;;;;;;;;;4965017;28;20059;-84
2022/04/14 09:41:39;;;;;;;12.13;7.90;;;;;;;;;;4982120;28;20949;-84
2022/04/14 09:44:06;;;;;;;16.50;7.57;;;;;;;;;;4963575;28;20118;-84
2022/04/14 09:46:33;;;;;;;12.18;6.70;;;;;;;;;;4981813;28;20043;-84
2022/04/14 09:49:07;;;;;;;10.93;6.30;;;;;;;;;;4964109;28;20063;-84
2022/04/14 09:51:35;;;;;;;13.02;7.18;;;;;;;;;;4972734;28;20044;-84
2022/04/14 09:54:28;;;;;;;11.82;6.78;;;;;;;;;;4964158;28;20090;-84
2022/04/14 09:56:55;;;;;;;11.02;6.57;;;;;;;;;;4961209;28;20092;-84
2022/04/14 09:59:23;;;;;;;13.57;6.95;;;;;;;;;;4973650;28;20055;-83
2022/04/14 10:02:06;;;;;;;16.65;7.60;;;;;;;;;;4954151;28;20078;-80
2022/04/14 10:04:34;;;;;;;11.50;7.57;;;;;;;;;;4938004;28;20052;-85
2022/04/14 10:07:08;;;;;;;13.45;6.97;;;;;;;;;;4948816;28;20051;-84
2022/04/14 10:09:38;;;;;;;13.50;7.07;;;;;;;;;;4958189;28;20090;-84
2022/04/14 10:12:17;;;;;;;13.18;7.10;;;;;;;;;;4970822;28;20066;-83
2022/04/14 10:14:56;;;;;;;15.00;6.40;;;;;;;;;;4946259;28;20114;-83
2022/04/14 10:17:26;;;;;;;15.50;6.32;;;;;;;;;;4967992;28;20047;-83
2022/04/14 10:19:52;;;;;;;11.55;6.68;;;;;;;;;;4970072;28;20055;-84
2022/04/14 10:22:19;;;;;;;14.98;6.15;;;;;;;;;;4946383;28;20510;-83
2022/04/14 10:24:46;;;;;;;11.30;5.70;;;;;;;;;;4950507;28;20562;-83
2022/04/14 10:27:14;;;;;;;9.43;5.25;;;;;;;;;;4970175;28;20490;-80
2022/04/14 10:29:40;;;;;;;11.50;5.18;;;;;;;;;;4952992;28;20150;-80
2022/04/14 10:32:10;;;;;;;11.60;5.70;;;;;;;;;;4965962;28;20063;-80
2022/04/14 10:34:37;;;;;;;7.53;4.45;;;;;;;;;;4947736;28;20166;-82
2022/04/14 10:37:07;;;;;;;9.90;4.90;;;;;;;;;;4970684;28;20142;-82
2022/04/14 10:39:39;;;;;;;8.63;4.38;;;;;;;;;;4965610;28;20503;-83
2022/04/14 10:42:07;;;;;;;41.58;10.55;;;;;;;;;;4964585;28;20118;-81
2022/04/14 10:44:44;;;;;;;42.17;12.48;;;;;;;;;;4946050;28;20094;-82
2022/04/14 10:47:11;;;;;;;70.32;17.52;;;;;;;;;;4949400;28;20059;-81
2022/04/14 10:49:39;;;;;;;20.25;7.85;;;;;;;;;;4943567;28;20075;-82
2022/04/14 10:52:26;;;;;;;36.17;10.82;;;;;;;;;;4956143;28;20059;-82
2022/04/14 10:54:57;;;;;;;19.92;7.28;;;;;;;;;;4952089;28;20074;-83
2022/04/14 10:57:39;;;;;;;27.40;10.63;;;;;;;;;;4963796;28;20146;-82
2022/04/14 11:00:32;;;;;;;22.35;7.10;;;;;;;;;;4956538;28;20107;-83
2022/04/14 11:03:06;;;;;;;104.57;20.50;;;;;;;;;;4967977;28;20552;-81
2022/04/14 11:05:49;;;;;;;124.35;28.02;;;;;;;;;;4969411;28;20051;-82
2022/04/14 11:08:38;;;;;;;104.70;26.10;;;;;;;;;;4951799;28;20098;-82
2022/04/14 11:11:05;;;;;;;69.68;15.25;;;;;;;;;;4968908;28;20083;-82
2022/04/14 11:14:07;;;;;;;60.85;16.67;;;;;;;;;;4970499;28;20169;-81
2022/04/14 11:16:39;;;;;;;159.82;38.88;;;;;;;;;;4913917;28;20090;-81
2022/04/14 11:19:14;;;;;;;61.90;20.55;;;;;;;;;;4948255;28;20071;-81
2022/04/14 11:22:01;;;;;;;39.42;12.30;;;;;;;;;;4970620;28;20511;-81
2022/04/14 11:24:37;;;;;;;185.00;41.85;;;;;;;;;;4970092;28;20055;-81
2022/04/14 11:27:11;;;;;;;124.85;28.02;;;;;;;;;;4953731;28;20058;-80
2022/04/14 11:29:38;;;;;;;199.57;55.33;;;;;;;;;;4952800;28;20091;-78
2022/04/14 11:32:05;;;;;;;122.50;23.27;;;;;;;;;;4949759;28;20111;-80
2022/04/14 11:34:32;;;;;;;18.52;5.60;;;;;;;;;;4950258;28;20952;-77
2022/04/14 11:36:59;;;;;;;27.58;9.20;;;;;;;;;;4971749;28;20090;-79
2022/04/14 11:39:25;;;;;;;9.52;3.15;;;;;;;;;;4952007;28;20055;-81
2022/04/14 11:41:53;;;;;;;19.73;5.95;;;;;;;;;;4949732;28;20134;-81
2022/04/14 11:44:20;;;;;;;75.88;25.70;;;;;;;;;;4952720;28;20134;-81
2022/04/14 11:46:47;;;;;;;161.85;47.47;;;;;;;;;;4969645;28;20134;-80
2022/04/14 11:49:14;;;;;;;5.80;2.50;;;;;;;;;;4953427;28;20141;-83
2022/04/14 11:51:46;;;;;;;6.78;2.47;;;;;;;;;;4964977;28;20063;-82
2022/04/14 11:54:18;;;;;;;8.98;2.70;;;;;;;;;;4952977;28;20067;-82
2022/04/14 11:57:07;;;;;;;8.77;3.42;;;;;;;;;;4975538;28;20580;-81
2022/04/14 11:59:38;;;;;;;6.28;3.15;;;;;;;;;;4957971;28;20051;-83
2022/04/14 12:02:11;;;;;;;5.80;3.28;;;;;;;;;;4975090;28;20095;-82
2022/04/14 12:04:38;;;;;;;10.40;3.53;;;;;;;;;;4958125;28;20055;-84
2022/04/14 12:07:05;;;;;;;8.18;3.40;;;;;;;;;;4955208;28;20097;-78
2022/04/14 12:09:32;;;;;;;6.75;3.17;;;;;;;;;;4972662;28;20099;-79
2022/04/14 12:12:08;;;;;;;11.95;4.18;;;;;;;;;;4973947;28;20052;-80
2022/04/14 12:14:34;;;;;;;6.90;3.20;;;;;;;;;;4974372;28;20154;-80
2022/04/14 12:17:01;;;;;;;6.13;2.60;;;;;;;;;;4971621;28;20063;-80
2022/04/14 12:19:44;;;;;;;5.05;2.50;;;;;;;;;;4969082;28;20047;-79
2022/04/14 12:22:11;;;;;;;7.82;2.88;;;;;;;;;;4955108;28;20099;-79
2022/04/14 12:24:38;;;;;;;9.75;2.97;;;;;;;;;;4953182;28;20063;-79
2022/04/14 12:27:04;;;;;;;5.70;2.78;;;;;;;;;;4976871;28;21028;-79
2022/04/14 12:29:31;;;;;;;5.78;2.50;;;;;;;;;;4983590;28;20055;-79
2022/04/14 12:32:08;;;;;;;4.35;2.50;;;;;;;;;;4981692;28;20055;-79
2022/04/14 12:34:34;;;;;;;7.45;2.85;;;;;;;;;;4983006;28;20098;-79
2022/04/14 12:37:18;;;;;;;8.55;3.30;;;;;;;;;;4962751;28;20043;-79
2022/04/14 12:39:54;;;;;;;9.48;3.72;;;;;;;;;;4966393;28;20057;-79
2022/04/14 12:42:25;;;;;;;7.80;3.40;;;;;;;;;;4966607;28;20051;-79
2022/04/14 12:44:52;;;;;;;6.85;3.65;;;;;;;;;;4949595;28;20142;-79
2022/04/14 12:47:26;;;;;;;5.75;3.70;;;;;;;;;;4966086;28;20059;-79
2022/04/14 12:49:52;;;;;;;7.03;3.78;;;;;;;;;;4986821;28;20059;-80
2022/04/14 12:52:19;;;;;;;10.05;3.83;;;;;;;;;;4967676;28;20086;-79
2022/04/14 12:54:46;;;;;;;7.95;3.80;;;;;;;;;;4969141;28;20058;-80
2022/04/14 12:57:17;;;;;;;7.25;4.00;;;;;;;;;;4984864;28;20117;-80
2022/04/14 12:59:58;;;;;;;6.72;3.97;;;;;;;;;;4981768;28;20574;-80
2022/04/14 13:02:25;;;;;;;7.55;3.95;;;;;;;;;;4987010;28;20071;-80
2022/04/14 13:05:04;;;;;;;6.60;4.10;;;;;;;;;;4985846;28;20059;-79
2022/04/14 13:07:43;;;;;;;7.72;3.85;;;;;;;;;;4949091;28;20056;-80
2022/04/14 13:10:09;;;;;;;9.43;4.43;;;;;;;;;;4980373;28;20063;-79
2022/04/14 13:12:37;;;;;;;5.95;3.60;;;;;;;;;;4965641;28;20830;-80
2022/04/14 13:15:04;;;;;;;4.63;2.60;;;;;;;;;;4968009;28;20074;-80
2022/04/14 13:17:36;;;;;;;7.95;2.03;;;;;;;;;;4961763;28;20111;-80
2022/04/14 13:20:10;;;;;;;5.43;1.90;;;;;;;;;;4969208;28;20055;-80
2022/04/14 13:22:36;;;;;;;8.00;4.85;;;;;;;;;;4969375;28;20051;-80
2022/04/14 13:25:03;;;;;;;11.63;8.27;;;;;;;;;;4968347;28;20067;-80
2022/04/14 13:27:30;;;;;;;12.27;8.05;;;;;;;;;;4956658;28;20106;-79
2022/04/14 13:29:56;;;;;;;12.50;7.55;;;;;;;;;;4969961;28;20083;-79
2022/04/14 13:32:23;;;;;;;9.90;6.65;;;;;;;;;;4957702;28;20422;-79
2022/04/14 13:34:49;;;;;;;10.77;7.00;;;;;;;;;;4970822;28;20498;-80
2022/04/14 13:37:18;;;;;;;9.23;6.45;;;;;;;;;;4959375;28;20059;-79
2022/04/14 13:39:48;;;;;;;10.93;6.32;;;;;;;;;;4972194;28;20059;-80
2022/04/14 13:42:14;;;;;;;8.87;6.07;;;;;;;;;;4955370;28;20097;-80
2022/04/14 13:44:44;;;;;;;8.13;6.05;;;;;;;;;;4947738;28;20282;-80
2022/04/14 13:47:14;;;;;;;12.27;6.10;;;;;;;;;;4969056;28;20047;-79
2022/04/14 13:49:40;;;;;;;11.18;5.57;;;;;;;;;;4973775;28;20082;-79
2022/04/14 13:52:06;;;;;;;9.05;4.50;;;;;;;;;;4974781;28;20048;-79
2022/04/14 13:54:33;;;;;;;9.95;5.30;;;;;;;;;;4956837;28;20055;-80
2022/04/14 13:57:02;;;;;;;7.93;4.97;;;;;;;;;;4975036;28;20051;-79
2022/04/14 13:59:31;;;;;;;13.23;4.82;;;;;;;;;;4955890;28;20052;-79
2022/04/14 14:02:00;;;;;;;9.68;4.20;;;;;;;;;;4974906;28;20078;-79
2022/04/14 14:04:29;;;;;;;7.40;3.92;;;;;;;;;;4943078;28;20070;-85
2022/04/14 14:06:56;;;;;;;9.13;3.70;;;;;;;;;;4961561;28;20051;-85
2022/04/14 14:09:25;;;;;;;6.82;3.78;;;;;;;;;;4949076;28;20142;-79
2022/04/14 14:12:06;;;;;;;10.20;4.20;;;;;;;;;;4968584;28;20074;-79
2022/04/14 14:14:33;;;;;;;6.18;3.60;;;;;;;;;;4956631;28;20080;-79
2022/04/14 14:16:59;;;;;;;6.60;3.58;;;;;;;;;;4971336;28;20102;-79
2022/04/14 14:19:26;;;;;;;6.13;3.42;;;;;;;;;;4970018;28;20047;-79
2022/04/14 14:21:53;;;;;;;7.78;3.67;;;;;;;;;;4943122;28;20094;-78
2022/04/14 14:24:19;;;;;;;7.47;3.97;;;;;;;;;;4951376;28;20218;-79
2022/04/14 14:26:46;;;;;;;7.40;4.07;;;;;;;;;;4938556;28;20079;-79
2022/04/14 14:29:12;;;;;;;7.53;3.63;;;;;;;;;;4971414;28;20043;-79
2022/04/14 14:31:39;;;;;;;7.15;4.18;;;;;;;;;;4957064;28;20099;-79